Denison, Illinois
Current Conditions -  °F | °C
As of 4:35 AM on Tuesday 27 Jan 2015 (Local Time) from KAJG Reporting Station
Haze Haze  
Wind Chill: 32°   Ceiling: 200
Heat Index: 32°   Visibility: 2.5mi
Dew Point: 32°   Wind: 0mph
Humidity: 100%   Direction: NA
Pressure: 29.95"   Gusts: NA
Location:  38.6278°N, 87.6942°W
Report Text: KAJG 271035Z AUTO 00000KT 2 1/2SM BR BKN002 OVC006 00/00 A2995 RMK AO2
Loading
Personal Weather Stations






























Interactive Weather Map New forecast layout! Learn more

10-Day Weather Forecast

Advertisements
Track Severe Weather on mobile